sensor_id;sensor_type;location;lat;lon;timestamp;P1;durP1;ratioP1;P2;durP2;ratioP2
43994;SDS011;51687;52.160;5.298;2023-07-28T00:00:38;19.15;;;15.10;;
43994;SDS011;51687;52.160;5.298;2023-07-28T00:03:04;17.25;;;15.48;;
43994;SDS011;51687;52.160;5.298;2023-07-28T00:05:31;17.27;;;15.57;;
43994;SDS011;51687;52.160;5.298;2023-07-28T00:07:58;24.73;;;15.50;;
43994;SDS011;51687;52.160;5.298;2023-07-28T00:10:25;17.73;;;15.90;;
43994;SDS011;51687;52.160;5.298;2023-07-28T00:12:52;20.27;;;16.52;;
43994;SDS011;51687;52.160;5.298;2023-07-28T00:15:18;18.30;;;15.82;;
43994;SDS011;51687;52.160;5.298;2023-07-28T00:17:45;20.42;;;17.13;;
43994;SDS011;51687;52.160;5.298;2023-07-28T00:20:12;17.58;;;15.98;;
43994;SDS011;51687;52.160;5.298;2023-07-28T00:22:39;17.77;;;16.23;;
43994;SDS011;51687;52.160;5.298;2023-07-28T00:25:05;17.92;;;15.77;;
43994;SDS011;51687;52.160;5.298;2023-07-28T00:27:32;19.70;;;16.08;;
43994;SDS011;51687;52.160;5.298;2023-07-28T00:30:02;21.23;;;14.85;;
43994;SDS011;51687;52.160;5.298;2023-07-28T00:32:29;21.30;;;14.85;;
43994;SDS011;51687;52.160;5.298;2023-07-28T00:34:56;19.80;;;14.55;;
43994;SDS011;51687;52.160;5.298;2023-07-28T00:37:22;19.42;;;14.30;;
43994;SDS011;51687;52.160;5.298;2023-07-28T00:39:49;15.25;;;13.43;;
43994;SDS011;51687;52.160;5.298;2023-07-28T00:42:16;20.13;;;14.52;;
43994;SDS011;51687;52.160;5.298;2023-07-28T00:44:43;15.50;;;13.43;;
43994;SDS011;51687;52.160;5.298;2023-07-28T00:47:09;19.88;;;12.57;;
43994;SDS011;51687;52.160;5.298;2023-07-28T00:49:36;16.17;;;12.43;;
43994;SDS011;51687;52.160;5.298;2023-07-28T00:52:08;13.95;;;11.73;;
43994;SDS011;51687;52.160;5.298;2023-07-28T00:54:35;22.88;;;12.55;;
43994;SDS011;51687;52.160;5.298;2023-07-28T00:57:02;18.13;;;11.95;;
43994;SDS011;51687;52.160;5.298;2023-07-28T00:59:31;14.55;;;12.82;;
43994;SDS011;51687;52.160;5.298;2023-07-28T01:01:58;14.15;;;12.27;;
43994;SDS011;51687;52.160;5.298;2023-07-28T01:04:25;17.88;;;12.45;;
43994;SDS011;51687;52.160;5.298;2023-07-28T01:06:53;26.02;;;12.93;;
43994;SDS011;51687;52.160;5.298;2023-07-28T01:09:29;16.65;;;12.00;;
43994;SDS011;51687;52.160;5.298;2023-07-28T01:12:07;16.23;;;12.07;;
43994;SDS011;51687;52.160;5.298;2023-07-28T01:14:35;17.55;;;12.75;;
43994;SDS011;51687;52.160;5.298;2023-07-28T01:17:02;17.33;;;12.27;;
43994;SDS011;51687;52.160;5.298;2023-07-28T01:19:29;20.98;;;12.68;;
43994;SDS011;51687;52.160;5.298;2023-07-28T01:22:15;21.60;;;14.27;;
43994;SDS011;51687;52.160;5.298;2023-07-28T01:27:44;21.40;;;12.35;;
43994;SDS011;51687;52.160;5.298;2023-07-28T01:30:12;30.08;;;13.13;;
43994;SDS011;51687;52.160;5.298;2023-07-28T01:32:39;22.08;;;12.70;;
43994;SDS011;51687;52.160;5.298;2023-07-28T01:35:06;20.52;;;14.00;;
43994;SDS011;51687;52.160;5.298;2023-07-28T01:37:33;19.58;;;14.15;;
43994;SDS011;51687;52.160;5.298;2023-07-28T01:40:00;15.18;;;13.63;;
43994;SDS011;51687;52.160;5.298;2023-07-28T01:42:27;18.80;;;14.63;;
43994;SDS011;51687;52.160;5.298;2023-07-28T01:44:54;26.33;;;15.68;;
43994;SDS011;51687;52.160;5.298;2023-07-28T01:47:21;30.90;;;16.67;;
43994;SDS011;51687;52.160;5.298;2023-07-28T01:49:47;28.67;;;16.20;;
43994;SDS011;51687;52.160;5.298;2023-07-28T01:52:14;28.85;;;16.33;;
43994;SDS011;51687;52.160;5.298;2023-07-28T01:54:41;23.42;;;15.00;;
43994;SDS011;51687;52.160;5.298;2023-07-28T01:57:07;24.70;;;15.80;;
43994;SDS011;51687;52.160;5.298;2023-07-28T01:59:34;23.70;;;16.77;;
43994;SDS011;51687;52.160;5.298;2023-07-28T02:02:01;37.70;;;16.17;;
43994;SDS011;51687;52.160;5.298;2023-07-28T02:04:28;22.67;;;14.57;;
43994;SDS011;51687;52.160;5.298;2023-07-28T02:06:54;23.95;;;15.32;;
43994;SDS011;51687;52.160;5.298;2023-07-28T02:09:21;24.70;;;16.30;;
43994;SDS011;51687;52.160;5.298;2023-07-28T02:11:48;23.33;;;14.93;;
43994;SDS011;51687;52.160;5.298;2023-07-28T02:14:14;30.63;;;15.38;;
43994;SDS011;51687;52.160;5.298;2023-07-28T02:16:41;31.05;;;16.10;;
43994;SDS011;51687;52.160;5.298;2023-07-28T02:19:08;21.15;;;15.60;;
43994;SDS011;51687;52.160;5.298;2023-07-28T02:21:35;20.83;;;15.18;;
43994;SDS011;51687;52.160;5.298;2023-07-28T02:24:01;25.42;;;16.50;;
43994;SDS011;51687;52.160;5.298;2023-07-28T02:26:28;28.52;;;17.02;;
43994;SDS011;51687;52.160;5.298;2023-07-28T02:28:55;30.75;;;18.27;;
43994;SDS011;51687;52.160;5.298;2023-07-28T02:31:22;25.10;;;17.95;;
43994;SDS011;51687;52.160;5.298;2023-07-28T02:33:49;32.47;;;17.65;;
43994;SDS011;51687;52.160;5.298;2023-07-28T02:36:15;30.42;;;17.23;;
43994;SDS011;51687;52.160;5.298;2023-07-28T02:38:42;32.92;;;18.42;;
43994;SDS011;51687;52.160;5.298;2023-07-28T02:41:09;28.08;;;18.50;;
43994;SDS011;51687;52.160;5.298;2023-07-28T02:43:36;42.55;;;19.27;;
43994;SDS011;51687;52.160;5.298;2023-07-28T02:46:03;35.03;;;19.42;;
43994;SDS011;51687;52.160;5.298;2023-07-28T02:48:30;33.85;;;20.10;;
43994;SDS011;51687;52.160;5.298;2023-07-28T02:50:56;38.30;;;19.67;;
43994;SDS011;51687;52.160;5.298;2023-07-28T02:53:23;38.33;;;20.42;;
43994;SDS011;51687;52.160;5.298;2023-07-28T02:55:51;39.08;;;20.55;;
43994;SDS011;51687;52.160;5.298;2023-07-28T02:58:18;51.00;;;19.77;;
43994;SDS011;51687;52.160;5.298;2023-07-28T03:00:44;36.95;;;20.02;;
43994;SDS011;51687;52.160;5.298;2023-07-28T03:03:12;35.90;;;19.35;;
43994;SDS011;51687;52.160;5.298;2023-07-28T03:05:39;42.47;;;21.65;;
43994;SDS011;51687;52.160;5.298;2023-07-28T03:08:06;46.22;;;20.10;;
43994;SDS011;51687;52.160;5.298;2023-07-28T03:10:33;36.75;;;19.50;;
43994;SDS011;51687;52.160;5.298;2023-07-28T03:13:00;38.40;;;20.27;;
43994;SDS011;51687;52.160;5.298;2023-07-28T03:15:26;43.78;;;20.17;;
43994;SDS011;51687;52.160;5.298;2023-07-28T03:17:53;39.08;;;19.42;;
43994;SDS011;51687;52.160;5.298;2023-07-28T03:20:21;43.10;;;19.55;;
43994;SDS011;51687;52.160;5.298;2023-07-28T03:22:47;37.58;;;19.30;;
43994;SDS011;51687;52.160;5.298;2023-07-28T03:25:14;48.05;;;19.05;;
43994;SDS011;51687;52.160;5.298;2023-07-28T03:27:41;36.58;;;19.65;;
43994;SDS011;51687;52.160;5.298;2023-07-28T03:30:08;38.50;;;18.45;;
43994;SDS011;51687;52.160;5.298;2023-07-28T03:32:37;38.70;;;19.33;;
43994;SDS011;51687;52.160;5.298;2023-07-28T03:35:04;42.25;;;19.20;;
43994;SDS011;51687;52.160;5.298;2023-07-28T03:37:32;54.90;;;19.83;;
43994;SDS011;51687;52.160;5.298;2023-07-28T03:39:59;53.67;;;19.90;;
43994;SDS011;51687;52.160;5.298;2023-07-28T03:42:26;30.15;;;18.25;;
43994;SDS011;51687;52.160;5.298;2023-07-28T03:44:53;46.00;;;19.05;;
43994;SDS011;51687;52.160;5.298;2023-07-28T03:47:20;52.38;;;21.13;;
43994;SDS011;51687;52.160;5.298;2023-07-28T03:49:46;48.88;;;19.67;;
43994;SDS011;51687;52.160;5.298;2023-07-28T03:52:13;39.70;;;20.00;;
43994;SDS011;51687;52.160;5.298;2023-07-28T03:54:40;47.20;;;21.15;;
43994;SDS011;51687;52.160;5.298;2023-07-28T03:57:08;36.92;;;20.48;;
43994;SDS011;51687;52.160;5.298;2023-07-28T03:59:36;43.60;;;20.85;;
43994;SDS011;51687;52.160;5.298;2023-07-28T04:02:03;57.10;;;22.25;;
43994;SDS011;51687;52.160;5.298;2023-07-28T04:04:30;49.17;;;21.05;;
43994;SDS011;51687;52.160;5.298;2023-07-28T04:06:56;52.30;;;21.25;;
43994;SDS011;51687;52.160;5.298;2023-07-28T04:09:23;61.88;;;23.05;;
43994;SDS011;51687;52.160;5.298;2023-07-28T04:11:50;62.28;;;22.50;;
43994;SDS011;51687;52.160;5.298;2023-07-28T04:14:17;59.35;;;22.50;;
43994;SDS011;51687;52.160;5.298;2023-07-28T04:16:43;58.20;;;22.80;;
43994;SDS011;51687;52.160;5.298;2023-07-28T04:19:10;53.38;;;22.13;;
43994;SDS011;51687;52.160;5.298;2023-07-28T04:21:37;64.35;;;24.55;;
43994;SDS011;51687;52.160;5.298;2023-07-28T04:24:07;63.03;;;22.80;;
43994;SDS011;51687;52.160;5.298;2023-07-28T04:26:34;47.92;;;21.65;;
43994;SDS011;51687;52.160;5.298;2023-07-28T04:29:02;47.67;;;24.13;;
43994;SDS011;51687;52.160;5.298;2023-07-28T04:31:29;55.40;;;23.67;;
43994;SDS011;51687;52.160;5.298;2023-07-28T04:33:59;47.22;;;23.23;;
43994;SDS011;51687;52.160;5.298;2023-07-28T04:36:27;48.45;;;23.10;;
43994;SDS011;51687;52.160;5.298;2023-07-28T04:38:54;54.28;;;25.17;;
43994;SDS011;51687;52.160;5.298;2023-07-28T04:41:21;58.53;;;23.92;;
43994;SDS011;51687;52.160;5.298;2023-07-28T04:43:47;62.15;;;23.98;;
43994;SDS011;51687;52.160;5.298;2023-07-28T04:46:14;66.15;;;24.50;;
43994;SDS011;51687;52.160;5.298;2023-07-28T04:48:41;66.20;;;24.83;;
43994;SDS011;51687;52.160;5.298;2023-07-28T04:51:08;55.15;;;25.30;;
43994;SDS011;51687;52.160;5.298;2023-07-28T04:53:34;66.63;;;24.35;;
43994;SDS011;51687;52.160;5.298;2023-07-28T04:56:01;53.83;;;25.15;;
43994;SDS011;51687;52.160;5.298;2023-07-28T04:58:29;65.18;;;25.77;;
43994;SDS011;51687;52.160;5.298;2023-07-28T05:00:56;51.22;;;25.85;;
43994;SDS011;51687;52.160;5.298;2023-07-28T05:03:23;56.55;;;26.27;;
43994;SDS011;51687;52.160;5.298;2023-07-28T05:05:50;62.38;;;26.52;;
43994;SDS011;51687;52.160;5.298;2023-07-28T05:08:17;58.25;;;26.98;;
43994;SDS011;51687;52.160;5.298;2023-07-28T05:10:43;59.72;;;26.90;;
43994;SDS011;51687;52.160;5.298;2023-07-28T05:13:10;60.85;;;24.50;;
43994;SDS011;51687;52.160;5.298;2023-07-28T05:15:37;63.33;;;27.50;;
43994;SDS011;51687;52.160;5.298;2023-07-28T05:18:04;61.78;;;26.83;;
43994;SDS011;51687;52.160;5.298;2023-07-28T05:20:30;57.17;;;26.42;;
43994;SDS011;51687;52.160;5.298;2023-07-28T05:22:57;66.07;;;27.90;;
43994;SDS011;51687;52.160;5.298;2023-07-28T05:25:24;57.85;;;26.02;;
43994;SDS011;51687;52.160;5.298;2023-07-28T05:27:51;53.28;;;25.90;;
43994;SDS011;51687;52.160;5.298;2023-07-28T05:30:17;61.72;;;25.88;;
43994;SDS011;51687;52.160;5.298;2023-07-28T05:32:44;61.35;;;26.60;;
43994;SDS011;51687;52.160;5.298;2023-07-28T05:35:12;58.90;;;24.95;;
43994;SDS011;51687;52.160;5.298;2023-07-28T05:37:40;56.05;;;25.92;;
43994;SDS011;51687;52.160;5.298;2023-07-28T05:40:07;57.70;;;23.17;;
43994;SDS011;51687;52.160;5.298;2023-07-28T05:42:35;63.47;;;25.70;;
43994;SDS011;51687;52.160;5.298;2023-07-28T05:45:01;50.83;;;22.55;;
43994;SDS011;51687;52.160;5.298;2023-07-28T05:47:29;53.35;;;23.23;;
43994;SDS011;51687;52.160;5.298;2023-07-28T05:49:56;52.78;;;22.65;;
43994;SDS011;51687;52.160;5.298;2023-07-28T05:52:22;41.45;;;21.88;;
43994;SDS011;51687;52.160;5.298;2023-07-28T05:54:49;47.20;;;23.20;;
43994;SDS011;51687;52.160;5.298;2023-07-28T05:57:16;50.45;;;22.30;;
43994;SDS011;51687;52.160;5.298;2023-07-28T05:59:43;44.00;;;22.30;;
43994;SDS011;51687;52.160;5.298;2023-07-28T06:02:09;45.72;;;21.40;;
43994;SDS011;51687;52.160;5.298;2023-07-28T06:04:36;41.45;;;21.67;;
43994;SDS011;51687;52.160;5.298;2023-07-28T06:07:03;50.78;;;22.25;;
43994;SDS011;51687;52.160;5.298;2023-07-28T06:09:30;46.30;;;22.20;;
43994;SDS011;51687;52.160;5.298;2023-07-28T06:11:56;51.22;;;20.17;;
43994;SDS011;51687;52.160;5.298;2023-07-28T06:14:23;36.30;;;20.42;;
43994;SDS011;51687;52.160;5.298;2023-07-28T06:16:50;42.90;;;21.10;;
43994;SDS011;51687;52.160;5.298;2023-07-28T06:19:17;33.93;;;19.73;;
43994;SDS011;51687;52.160;5.298;2023-07-28T06:21:50;44.67;;;20.45;;
43994;SDS011;51687;52.160;5.298;2023-07-28T06:24:17;36.10;;;20.60;;
43994;SDS011;51687;52.160;5.298;2023-07-28T06:26:44;43.40;;;21.42;;
43994;SDS011;51687;52.160;5.298;2023-07-28T06:29:11;39.03;;;20.90;;
43994;SDS011;51687;52.160;5.298;2023-07-28T06:31:38;39.92;;;20.88;;
43994;SDS011;51687;52.160;5.298;2023-07-28T06:34:04;34.13;;;20.55;;
43994;SDS011;51687;52.160;5.298;2023-07-28T06:36:31;33.33;;;19.90;;
43994;SDS011;51687;52.160;5.298;2023-07-28T06:38:58;39.15;;;19.52;;
43994;SDS011;51687;52.160;5.298;2023-07-28T06:41:25;37.88;;;21.42;;
43994;SDS011;51687;52.160;5.298;2023-07-28T06:43:52;40.40;;;20.73;;
43994;SDS011;51687;52.160;5.298;2023-07-28T06:46:18;33.55;;;20.92;;
43994;SDS011;51687;52.160;5.298;2023-07-28T06:48:45;33.83;;;19.42;;
43994;SDS011;51687;52.160;5.298;2023-07-28T06:51:12;35.85;;;20.15;;
43994;SDS011;51687;52.160;5.298;2023-07-28T06:53:39;37.45;;;20.83;;
43994;SDS011;51687;52.160;5.298;2023-07-28T06:56:06;35.58;;;20.48;;
43994;SDS011;51687;52.160;5.298;2023-07-28T06:58:32;37.40;;;20.15;;
43994;SDS011;51687;52.160;5.298;2023-07-28T07:00:59;37.38;;;21.00;;
43994;SDS011;51687;52.160;5.298;2023-07-28T07:03:26;29.58;;;19.65;;
43994;SDS011;51687;52.160;5.298;2023-07-28T07:05:53;36.42;;;22.42;;
43994;SDS011;51687;52.160;5.298;2023-07-28T07:08:19;31.63;;;21.13;;
43994;SDS011;51687;52.160;5.298;2023-07-28T07:10:49;38.58;;;22.48;;
43994;SDS011;51687;52.160;5.298;2023-07-28T07:13:17;41.05;;;21.45;;
43994;SDS011;51687;52.160;5.298;2023-07-28T07:15:44;37.92;;;21.00;;
43994;SDS011;51687;52.160;5.298;2023-07-28T07:18:11;36.05;;;21.80;;
43994;SDS011;51687;52.160;5.298;2023-07-28T07:20:39;38.33;;;19.73;;
43994;SDS011;51687;52.160;5.298;2023-07-28T07:23:05;44.38;;;21.75;;
43994;SDS011;51687;52.160;5.298;2023-07-28T07:25:32;41.42;;;21.17;;
43994;SDS011;51687;52.160;5.298;2023-07-28T07:27:59;35.25;;;21.95;;
43994;SDS011;51687;52.160;5.298;2023-07-28T07:30:26;34.83;;;22.00;;
43994;SDS011;51687;52.160;5.298;2023-07-28T07:32:53;27.10;;;21.27;;
43994;SDS011;51687;52.160;5.298;2023-07-28T07:35:20;36.55;;;21.92;;
43994;SDS011;51687;52.160;5.298;2023-07-28T07:37:47;35.15;;;21.35;;
43994;SDS011;51687;52.160;5.298;2023-07-28T07:40:13;27.33;;;21.60;;
43994;SDS011;51687;52.160;5.298;2023-07-28T07:42:48;34.67;;;23.42;;
43994;SDS011;51687;52.160;5.298;2023-07-28T07:45:15;29.35;;;22.30;;
43994;SDS011;51687;52.160;5.298;2023-07-28T07:47:42;29.90;;;23.77;;
43994;SDS011;51687;52.160;5.298;2023-07-28T07:50:10;33.92;;;22.73;;
43994;SDS011;51687;52.160;5.298;2023-07-28T07:52:37;36.85;;;22.15;;
43994;SDS011;51687;52.160;5.298;2023-07-28T07:55:08;36.47;;;21.60;;
43994;SDS011;51687;52.160;5.298;2023-07-28T07:57:37;28.65;;;21.20;;
43994;SDS011;51687;52.160;5.298;2023-07-28T08:00:04;26.13;;;20.25;;
43994;SDS011;51687;52.160;5.298;2023-07-28T08:02:31;35.55;;;22.48;;
43994;SDS011;51687;52.160;5.298;2023-07-28T08:04:58;31.10;;;19.67;;
43994;SDS011;51687;52.160;5.298;2023-07-28T08:07:25;26.75;;;20.88;;
43994;SDS011;51687;52.160;5.298;2023-07-28T08:09:52;29.95;;;19.73;;
43994;SDS011;51687;52.160;5.298;2023-07-28T08:12:19;27.30;;;19.05;;
43994;SDS011;51687;52.160;5.298;2023-07-28T08:14:46;20.40;;;17.95;;
43994;SDS011;51687;52.160;5.298;2023-07-28T08:17:13;22.42;;;18.67;;
43994;SDS011;51687;52.160;5.298;2023-07-28T08:19:40;29.15;;;20.02;;
43994;SDS011;51687;52.160;5.298;2023-07-28T08:22:06;32.58;;;18.50;;
43994;SDS011;51687;52.160;5.298;2023-07-28T08:24:33;19.27;;;17.48;;
43994;SDS011;51687;52.160;5.298;2023-07-28T08:27:00;24.50;;;16.63;;
43994;SDS011;51687;52.160;5.298;2023-07-28T08:29:27;20.15;;;15.80;;
43994;SDS011;51687;52.160;5.298;2023-07-28T08:31:53;14.70;;;13.18;;
43994;SDS011;51687;52.160;5.298;2023-07-28T08:34:20;14.77;;;13.32;;
43994;SDS011;51687;52.160;5.298;2023-07-28T08:36:47;16.00;;;14.32;;
43994;SDS011;51687;52.160;5.298;2023-07-28T08:39:14;13.75;;;12.40;;
43994;SDS011;51687;52.160;5.298;2023-07-28T08:41:41;12.35;;;11.25;;
43994;SDS011;51687;52.160;5.298;2023-07-28T08:44:08;13.50;;;12.10;;
43994;SDS011;51687;52.160;5.298;2023-07-28T08:46:35;13.32;;;11.85;;
43994;SDS011;51687;52.160;5.298;2023-07-28T08:49:02;12.30;;;11.10;;
43994;SDS011;51687;52.160;5.298;2023-07-28T08:51:29;14.98;;;11.20;;
43994;SDS011;51687;52.160;5.298;2023-07-28T08:53:56;11.73;;;10.50;;
43994;SDS011;51687;52.160;5.298;2023-07-28T08:56:23;10.85;;;9.85;;
43994;SDS011;51687;52.160;5.298;2023-07-28T08:58:56;10.80;;;9.60;;
43994;SDS011;51687;52.160;5.298;2023-07-28T09:01:25;10.80;;;8.43;;
43994;SDS011;51687;52.160;5.298;2023-07-28T09:03:52;10.07;;;9.13;;
43994;SDS011;51687;52.160;5.298;2023-07-28T09:06:19;9.23;;;7.47;;
43994;SDS011;51687;52.160;5.298;2023-07-28T09:08:55;10.40;;;6.50;;
43994;SDS011;51687;52.160;5.298;2023-07-28T09:11:23;9.98;;;5.13;;
43994;SDS011;51687;52.160;5.298;2023-07-28T09:13:53;7.97;;;5.43;;
43994;SDS011;51687;52.160;5.298;2023-07-28T09:16:21;8.32;;;5.35;;
43994;SDS011;51687;52.160;5.298;2023-07-28T09:18:51;7.55;;;4.53;;
43994;SDS011;51687;52.160;5.298;2023-07-28T09:21:38;10.43;;;4.40;;
43994;SDS011;51687;52.160;5.298;2023-07-28T09:24:11;6.88;;;4.63;;
43994;SDS011;51687;52.160;5.298;2023-07-28T09:26:44;5.95;;;4.53;;
43994;SDS011;51687;52.160;5.298;2023-07-28T09:31:44;6.45;;;4.47;;
43994;SDS011;51687;52.160;5.298;2023-07-28T09:34:12;6.93;;;5.30;;
43994;SDS011;51687;52.160;5.298;2023-07-28T09:36:39;7.00;;;5.70;;
43994;SDS011;51687;52.160;5.298;2023-07-28T09:39:06;7.15;;;5.82;;
43994;SDS011;51687;52.160;5.298;2023-07-28T09:41:37;6.32;;;5.25;;
43994;SDS011;51687;52.160;5.298;2023-07-28T09:44:05;8.35;;;4.68;;
43994;SDS011;51687;52.160;5.298;2023-07-28T09:46:32;6.45;;;4.55;;
43994;SDS011;51687;52.160;5.298;2023-07-28T09:49:03;7.72;;;5.70;;
43994;SDS011;51687;52.160;5.298;2023-07-28T09:51:31;8.38;;;5.30;;
43994;SDS011;51687;52.160;5.298;2023-07-28T09:54:14;5.93;;;5.07;;
43994;SDS011;51687;52.160;5.298;2023-07-28T09:56:51;7.30;;;6.60;;
43994;SDS011;51687;52.160;5.298;2023-07-28T09:59:29;7.00;;;5.72;;
43994;SDS011;51687;52.160;5.298;2023-07-28T10:01:58;8.98;;;6.05;;
43994;SDS011;51687;52.160;5.298;2023-07-28T10:04:29;9.20;;;6.60;;
43994;SDS011;51687;52.160;5.298;2023-07-28T10:06:56;8.02;;;5.60;;
43994;SDS011;51687;52.160;5.298;2023-07-28T10:09:26;7.63;;;5.63;;
43994;SDS011;51687;52.160;5.298;2023-07-28T10:11:56;9.98;;;6.18;;
43994;SDS011;51687;52.160;5.298;2023-07-28T10:14:26;6.75;;;5.20;;
43994;SDS011;51687;52.160;5.298;2023-07-28T10:16:58;6.88;;;6.15;;
43994;SDS011;51687;52.160;5.298;2023-07-28T10:19:25;9.03;;;6.53;;
43994;SDS011;51687;52.160;5.298;2023-07-28T10:22:01;7.15;;;5.82;;
43994;SDS011;51687;52.160;5.298;2023-07-28T10:25:05;6.30;;;5.53;;
43994;SDS011;51687;52.160;5.298;2023-07-28T10:27:32;7.53;;;5.78;;
43994;SDS011;51687;52.160;5.298;2023-07-28T10:30:03;7.07;;;4.97;;
43994;SDS011;51687;52.160;5.298;2023-07-28T10:32:41;7.18;;;5.43;;
43994;SDS011;51687;52.160;5.298;2023-07-28T10:37:39;7.70;;;6.07;;
43994;SDS011;51687;52.160;5.298;2023-07-28T10:40:23;6.32;;;5.57;;
43994;SDS011;51687;52.160;5.298;2023-07-28T10:42:53;9.90;;;6.32;;
43994;SDS011;51687;52.160;5.298;2023-07-28T10:45:21;7.95;;;6.28;;
43994;SDS011;51687;52.160;5.298;2023-07-28T10:47:49;5.65;;;5.10;;
43994;SDS011;51687;52.160;5.298;2023-07-28T10:52:45;8.20;;;6.70;;
43994;SDS011;51687;52.160;5.298;2023-07-28T10:55:22;7.97;;;6.00;;
43994;SDS011;51687;52.160;5.298;2023-07-28T10:57:51;6.70;;;6.00;;
43994;SDS011;51687;52.160;5.298;2023-07-28T11:00:20;7.88;;;6.43;;
43994;SDS011;51687;52.160;5.298;2023-07-28T11:02:49;11.70;;;7.18;;
43994;SDS011;51687;52.160;5.298;2023-07-28T11:05:21;8.25;;;7.00;;
43994;SDS011;51687;52.160;5.298;2023-07-28T11:07:59;9.07;;;6.50;;
43994;SDS011;51687;52.160;5.298;2023-07-28T11:10:28;7.18;;;6.53;;
43994;SDS011;51687;52.160;5.298;2023-07-28T11:15:24;6.85;;;6.18;;
43994;SDS011;51687;52.160;5.298;2023-07-28T11:17:52;7.80;;;6.60;;
43994;SDS011;51687;52.160;5.298;2023-07-28T11:20:20;10.80;;;6.47;;
43994;SDS011;51687;52.160;5.298;2023-07-28T11:22:52;6.30;;;5.70;;
43994;SDS011;51687;52.160;5.298;2023-07-28T11:25:19;7.63;;;6.07;;
43994;SDS011;51687;52.160;5.298;2023-07-28T11:27:47;7.13;;;5.90;;
43994;SDS011;51687;52.160;5.298;2023-07-28T11:30:15;6.70;;;6.10;;
43994;SDS011;51687;52.160;5.298;2023-07-28T11:32:44;7.70;;;6.38;;
43994;SDS011;51687;52.160;5.298;2023-07-28T11:35:12;7.78;;;6.65;;
43994;SDS011;51687;52.160;5.298;2023-07-28T11:37:40;9.88;;;6.78;;
43994;SDS011;51687;52.160;5.298;2023-07-28T11:40:08;6.30;;;5.60;;
43994;SDS011;51687;52.160;5.298;2023-07-28T11:42:38;10.73;;;5.35;;
43994;SDS011;51687;52.160;5.298;2023-07-28T11:47:33;6.50;;;4.88;;
43994;SDS011;51687;52.160;5.298;2023-07-28T11:50:00;8.73;;;4.80;;
43994;SDS011;51687;52.160;5.298;2023-07-28T11:54:58;8.02;;;4.60;;
43994;SDS011;51687;52.160;5.298;2023-07-28T11:59:53;7.68;;;4.65;;
43994;SDS011;51687;52.160;5.298;2023-07-28T12:02:24;8.07;;;4.15;;
43994;SDS011;51687;52.160;5.298;2023-07-28T12:04:53;10.70;;;5.32;;
43994;SDS011;51687;52.160;5.298;2023-07-28T12:07:27;7.28;;;5.22;;
43994;SDS011;51687;52.160;5.298;2023-07-28T12:09:55;10.90;;;4.45;;
43994;SDS011;51687;52.160;5.298;2023-07-28T12:12:30;7.40;;;4.65;;
43994;SDS011;51687;52.160;5.298;2023-07-28T12:15:00;7.82;;;4.45;;
43994;SDS011;51687;52.160;5.298;2023-07-28T12:17:33;4.80;;;3.83;;
43994;SDS011;51687;52.160;5.298;2023-07-28T12:20:04;8.48;;;5.20;;
43994;SDS011;51687;52.160;5.298;2023-07-28T12:22:41;8.25;;;5.40;;
43994;SDS011;51687;52.160;5.298;2023-07-28T12:25:09;9.32;;;5.13;;
43994;SDS011;51687;52.160;5.298;2023-07-28T12:27:36;6.53;;;4.57;;
43994;SDS011;51687;52.160;5.298;2023-07-28T12:30:04;6.17;;;4.80;;
43994;SDS011;51687;52.160;5.298;2023-07-28T12:32:41;5.47;;;4.65;;
43994;SDS011;51687;52.160;5.298;2023-07-28T12:35:28;7.47;;;4.57;;
43994;SDS011;51687;52.160;5.298;2023-07-28T12:38:01;9.15;;;4.80;;
43994;SDS011;51687;52.160;5.298;2023-07-28T12:40:50;9.70;;;4.93;;
43994;SDS011;51687;52.160;5.298;2023-07-28T12:43:21;8.35;;;5.22;;
43994;SDS011;51687;52.160;5.298;2023-07-28T12:45:51;5.13;;;4.72;;
43994;SDS011;51687;52.160;5.298;2023-07-28T12:48:22;8.80;;;6.07;;
43994;SDS011;51687;52.160;5.298;2023-07-28T12:50:49;6.85;;;5.20;;
43994;SDS011;51687;52.160;5.298;2023-07-28T12:53:29;6.90;;;6.00;;
43994;SDS011;51687;52.160;5.298;2023-07-28T12:55:55;6.22;;;5.63;;
43994;SDS011;51687;52.160;5.298;2023-07-28T12:58:25;6.57;;;5.82;;
43994;SDS011;51687;52.160;5.298;2023-07-28T13:00:55;7.82;;;4.68;;
43994;SDS011;51687;52.160;5.298;2023-07-28T13:03:27;4.97;;;4.00;;
43994;SDS011;51687;52.160;5.298;2023-07-28T13:05:54;7.38;;;4.25;;
43994;SDS011;51687;52.160;5.298;2023-07-28T13:08:21;4.40;;;4.05;;
43994;SDS011;51687;52.160;5.298;2023-07-28T13:10:51;4.50;;;4.10;;
43994;SDS011;51687;52.160;5.298;2023-07-28T13:13:21;6.15;;;4.32;;
43994;SDS011;51687;52.160;5.298;2023-07-28T13:15:48;5.38;;;4.40;;
43994;SDS011;51687;52.160;5.298;2023-07-28T13:18:15;4.43;;;4.03;;
43994;SDS011;51687;52.160;5.298;2023-07-28T13:20:43;5.68;;;4.55;;
43994;SDS011;51687;52.160;5.298;2023-07-28T13:23:10;4.78;;;3.90;;
43994;SDS011;51687;52.160;5.298;2023-07-28T13:25:37;7.40;;;4.57;;
43994;SDS011;51687;52.160;5.298;2023-07-28T13:28:04;4.50;;;4.05;;
43994;SDS011;51687;52.160;5.298;2023-07-28T13:30:35;4.43;;;3.50;;
43994;SDS011;51687;52.160;5.298;2023-07-28T13:33:03;5.13;;;4.10;;
43994;SDS011;51687;52.160;5.298;2023-07-28T13:35:31;4.07;;;3.60;;
43994;SDS011;51687;52.160;5.298;2023-07-28T13:37:59;3.88;;;3.30;;
43994;SDS011;51687;52.160;5.298;2023-07-28T13:40:26;3.57;;;3.27;;
43994;SDS011;51687;52.160;5.298;2023-07-28T13:42:53;4.97;;;3.42;;
43994;SDS011;51687;52.160;5.298;2023-07-28T13:45:21;3.70;;;3.05;;
43994;SDS011;51687;52.160;5.298;2023-07-28T13:47:48;3.28;;;2.97;;
43994;SDS011;51687;52.160;5.298;2023-07-28T13:50:16;4.03;;;2.80;;
43994;SDS011;51687;52.160;5.298;2023-07-28T13:52:43;5.20;;;3.85;;
43994;SDS011;51687;52.160;5.298;2023-07-28T13:55:15;5.88;;;3.67;;
43994;SDS011;51687;52.160;5.298;2023-07-28T13:57:43;5.18;;;3.38;;
43994;SDS011;51687;52.160;5.298;2023-07-28T14:00:11;5.10;;;3.40;;
43994;SDS011;51687;52.160;5.298;2023-07-28T14:02:39;5.32;;;4.03;;
43994;SDS011;51687;52.160;5.298;2023-07-28T14:05:07;5.25;;;3.22;;
43994;SDS011;51687;52.160;5.298;2023-07-28T14:07:34;4.63;;;3.07;;
43994;SDS011;51687;52.160;5.298;2023-07-28T14:10:01;5.82;;;3.72;;
43994;SDS011;51687;52.160;5.298;2023-07-28T14:12:32;6.22;;;3.33;;
43994;SDS011;51687;52.160;5.298;2023-07-28T14:14:59;9.85;;;4.07;;
43994;SDS011;51687;52.160;5.298;2023-07-28T14:17:26;5.40;;;3.50;;
43994;SDS011;51687;52.160;5.298;2023-07-28T14:19:53;3.28;;;2.97;;
43994;SDS011;51687;52.160;5.298;2023-07-28T14:22:20;4.68;;;3.25;;
43994;SDS011;51687;52.160;5.298;2023-07-28T14:24:46;4.90;;;3.30;;
43994;SDS011;51687;52.160;5.298;2023-07-28T14:27:13;6.60;;;3.45;;
43994;SDS011;51687;52.160;5.298;2023-07-28T14:29:40;4.90;;;3.63;;
43994;SDS011;51687;52.160;5.298;2023-07-28T14:32:06;5.43;;;3.25;;
43994;SDS011;51687;52.160;5.298;2023-07-28T14:34:34;4.78;;;4.28;;
43994;SDS011;51687;52.160;5.298;2023-07-28T14:37:03;5.07;;;3.88;;
43994;SDS011;51687;52.160;5.298;2023-07-28T14:39:33;5.82;;;3.90;;
43994;SDS011;51687;52.160;5.298;2023-07-28T14:42:00;6.50;;;4.32;;
43994;SDS011;51687;52.160;5.298;2023-07-28T14:44:27;5.75;;;4.10;;
43994;SDS011;51687;52.160;5.298;2023-07-28T14:46:54;4.93;;;4.38;;
43994;SDS011;51687;52.160;5.298;2023-07-28T14:49:21;7.67;;;4.37;;
43994;SDS011;51687;52.160;5.298;2023-07-28T14:51:49;5.18;;;4.55;;
43994;SDS011;51687;52.160;5.298;2023-07-28T14:54:16;5.47;;;4.40;;
43994;SDS011;51687;52.160;5.298;2023-07-28T14:56:43;4.80;;;4.18;;